sensor_id;sensor_type;location;lat;lon;timestamp;P1;durP1;ratioP1;P2;durP2;ratioP2
45402;SDS011;47427;51.976;5.326;2023-12-22T00:01:16;11.13;;;3.22;;
45402;SDS011;47427;51.976;5.326;2023-12-22T00:04:19;10.32;;;3.55;;
45402;SDS011;47427;51.976;5.326;2023-12-22T00:07:20;8.88;;;3.05;;
45402;SDS011;47427;51.976;5.326;2023-12-22T00:10:23;12.13;;;3.58;;
45402;SDS011;47427;51.976;5.326;2023-12-22T00:13:26;11.35;;;3.75;;
45402;SDS011;47427;51.976;5.326;2023-12-22T00:16:28;14.57;;;3.38;;
45402;SDS011;47427;51.976;5.326;2023-12-22T00:19:30;9.60;;;4.05;;
45402;SDS011;47427;51.976;5.326;2023-12-22T00:22:33;14.02;;;3.72;;
45402;SDS011;47427;51.976;5.326;2023-12-22T00:25:36;16.90;;;4.13;;
45402;SDS011;47427;51.976;5.326;2023-12-22T00:28:39;10.60;;;4.20;;
45402;SDS011;47427;51.976;5.326;2023-12-22T00:31:41;12.50;;;3.13;;
45402;SDS011;47427;51.976;5.326;2023-12-22T00:34:44;17.50;;;4.05;;
45402;SDS011;47427;51.976;5.326;2023-12-22T00:37:47;15.88;;;4.65;;
45402;SDS011;47427;51.976;5.326;2023-12-22T00:40:50;18.58;;;3.65;;
45402;SDS011;47427;51.976;5.326;2023-12-22T00:43:52;15.18;;;4.32;;
45402;SDS011;47427;51.976;5.326;2023-12-22T00:46:54;12.25;;;3.30;;
45402;SDS011;47427;51.976;5.326;2023-12-22T00:49:57;14.95;;;3.75;;
45402;SDS011;47427;51.976;5.326;2023-12-22T00:53:00;12.68;;;3.72;;
45402;SDS011;47427;51.976;5.326;2023-12-22T00:56:03;19.80;;;3.60;;
45402;SDS011;47427;51.976;5.326;2023-12-22T00:59:06;5.57;;;1.88;;
45402;SDS011;47427;51.976;5.326;2023-12-22T01:02:09;10.27;;;1.90;;
45402;SDS011;47427;51.976;5.326;2023-12-22T01:05:12;6.38;;;2.15;;
45402;SDS011;47427;51.976;5.326;2023-12-22T01:08:15;11.85;;;2.17;;
45402;SDS011;47427;51.976;5.326;2023-12-22T01:11:17;10.68;;;2.28;;
45402;SDS011;47427;51.976;5.326;2023-12-22T01:14:20;10.95;;;2.90;;
45402;SDS011;47427;51.976;5.326;2023-12-22T01:17:23;9.13;;;2.70;;
45402;SDS011;47427;51.976;5.326;2023-12-22T01:20:26;19.75;;;5.15;;
45402;SDS011;47427;51.976;5.326;2023-12-22T01:23:27;12.95;;;3.80;;
45402;SDS011;47427;51.976;5.326;2023-12-22T01:26:30;20.85;;;3.50;;
45402;SDS011;47427;51.976;5.326;2023-12-22T01:29:33;15.32;;;3.35;;
45402;SDS011;47427;51.976;5.326;2023-12-22T01:32:35;15.13;;;3.50;;
45402;SDS011;47427;51.976;5.326;2023-12-22T01:35:37;26.38;;;4.88;;
45402;SDS011;47427;51.976;5.326;2023-12-22T01:38:40;18.00;;;3.67;;
45402;SDS011;47427;51.976;5.326;2023-12-22T01:41:43;16.70;;;4.65;;
45402;SDS011;47427;51.976;5.326;2023-12-22T01:44:45;14.07;;;3.42;;
45402;SDS011;47427;51.976;5.326;2023-12-22T01:47:47;24.35;;;4.97;;
45402;SDS011;47427;51.976;5.326;2023-12-22T01:50:50;15.85;;;4.55;;
45402;SDS011;47427;51.976;5.326;2023-12-22T01:53:55;17.25;;;3.13;;
45402;SDS011;47427;51.976;5.326;2023-12-22T01:56:58;17.08;;;4.30;;
45402;SDS011;47427;51.976;5.326;2023-12-22T02:00:00;18.15;;;3.33;;
45402;SDS011;47427;51.976;5.326;2023-12-22T02:03:13;21.40;;;4.75;;
45402;SDS011;47427;51.976;5.326;2023-12-22T02:06:17;20.83;;;4.15;;
45402;SDS011;47427;51.976;5.326;2023-12-22T02:09:21;20.50;;;3.53;;
45402;SDS011;47427;51.976;5.326;2023-12-22T02:12:22;16.88;;;4.22;;
45402;SDS011;47427;51.976;5.326;2023-12-22T02:15:25;31.65;;;5.40;;
45402;SDS011;47427;51.976;5.326;2023-12-22T02:18:33;25.83;;;6.32;;
45402;SDS011;47427;51.976;5.326;2023-12-22T02:21:59;26.83;;;4.60;;
45402;SDS011;47427;51.976;5.326;2023-12-22T02:25:04;29.48;;;5.57;;
45402;SDS011;47427;51.976;5.326;2023-12-22T02:28:09;21.08;;;6.35;;
45402;SDS011;47427;51.976;5.326;2023-12-22T02:31:19;21.30;;;5.97;;
45402;SDS011;47427;51.976;5.326;2023-12-22T02:34:37;33.13;;;6.00;;
45402;SDS011;47427;51.976;5.326;2023-12-22T02:37:45;21.58;;;6.15;;
45402;SDS011;47427;51.976;5.326;2023-12-22T02:40:49;32.72;;;5.13;;
45402;SDS011;47427;51.976;5.326;2023-12-22T02:43:52;28.10;;;5.30;;
45402;SDS011;47427;51.976;5.326;2023-12-22T02:46:56;33.50;;;6.53;;
45402;SDS011;47427;51.976;5.326;2023-12-22T02:49:57;24.65;;;5.82;;
45402;SDS011;47427;51.976;5.326;2023-12-22T02:53:00;34.70;;;5.95;;
45402;SDS011;47427;51.976;5.326;2023-12-22T02:56:04;25.45;;;6.25;;
45402;SDS011;47427;51.976;5.326;2023-12-22T02:59:08;22.98;;;4.85;;
45402;SDS011;47427;51.976;5.326;2023-12-22T03:02:10;21.02;;;6.20;;
45402;SDS011;47427;51.976;5.326;2023-12-22T03:05:14;22.88;;;4.90;;
45402;SDS011;47427;51.976;5.326;2023-12-22T03:08:16;19.50;;;4.93;;
45402;SDS011;47427;51.976;5.326;2023-12-22T03:11:20;21.63;;;5.72;;
45402;SDS011;47427;51.976;5.326;2023-12-22T03:14:21;27.35;;;5.15;;
45402;SDS011;47427;51.976;5.326;2023-12-22T03:17:24;21.05;;;5.45;;
45402;SDS011;47427;51.976;5.326;2023-12-22T03:20:27;26.88;;;5.30;;
45402;SDS011;47427;51.976;5.326;2023-12-22T03:23:30;17.00;;;4.95;;
45402;SDS011;47427;51.976;5.326;2023-12-22T03:26:32;22.13;;;4.80;;
45402;SDS011;47427;51.976;5.326;2023-12-22T03:29:34;18.95;;;5.45;;
45402;SDS011;47427;51.976;5.326;2023-12-22T03:32:37;21.15;;;5.22;;
45402;SDS011;47427;51.976;5.326;2023-12-22T03:35:40;23.05;;;5.30;;
45402;SDS011;47427;51.976;5.326;2023-12-22T03:38:42;25.35;;;5.20;;
45402;SDS011;47427;51.976;5.326;2023-12-22T03:41:44;30.83;;;5.53;;
45402;SDS011;47427;51.976;5.326;2023-12-22T03:44:47;21.08;;;5.32;;
45402;SDS011;47427;51.976;5.326;2023-12-22T03:47:49;24.65;;;5.43;;
45402;SDS011;47427;51.976;5.326;2023-12-22T03:50:52;26.48;;;6.55;;
45402;SDS011;47427;51.976;5.326;2023-12-22T03:53:54;25.55;;;4.50;;
45402;SDS011;47427;51.976;5.326;2023-12-22T03:56:57;20.08;;;5.97;;
45402;SDS011;47427;51.976;5.326;2023-12-22T03:59:59;25.17;;;5.63;;
45402;SDS011;47427;51.976;5.326;2023-12-22T04:03:04;23.60;;;5.78;;
45402;SDS011;47427;51.976;5.326;2023-12-22T04:06:06;22.27;;;5.90;;
45402;SDS011;47427;51.976;5.326;2023-12-22T04:09:09;23.38;;;5.68;;
45402;SDS011;47427;51.976;5.326;2023-12-22T04:12:12;16.63;;;6.07;;
45402;SDS011;47427;51.976;5.326;2023-12-22T04:15:15;25.42;;;6.00;;
45402;SDS011;47427;51.976;5.326;2023-12-22T04:18:16;30.60;;;5.95;;
45402;SDS011;47427;51.976;5.326;2023-12-22T04:21:19;25.33;;;5.68;;
45402;SDS011;47427;51.976;5.326;2023-12-22T04:24:22;21.13;;;6.13;;
45402;SDS011;47427;51.976;5.326;2023-12-22T04:27:24;19.52;;;5.15;;
45402;SDS011;47427;51.976;5.326;2023-12-22T04:30:26;30.83;;;5.97;;
45402;SDS011;47427;51.976;5.326;2023-12-22T04:33:29;24.40;;;6.47;;
45402;SDS011;47427;51.976;5.326;2023-12-22T04:36:32;19.73;;;5.95;;
45402;SDS011;47427;51.976;5.326;2023-12-22T04:39:35;27.92;;;7.22;;
45402;SDS011;47427;51.976;5.326;2023-12-22T04:42:36;27.40;;;6.43;;
45402;SDS011;47427;51.976;5.326;2023-12-22T04:45:39;33.58;;;7.20;;
45402;SDS011;47427;51.976;5.326;2023-12-22T04:48:42;32.58;;;6.72;;
45402;SDS011;47427;51.976;5.326;2023-12-22T04:51:45;20.77;;;5.75;;
45402;SDS011;47427;51.976;5.326;2023-12-22T04:54:47;29.50;;;7.05;;
45402;SDS011;47427;51.976;5.326;2023-12-22T04:57:50;19.00;;;5.55;;
45402;SDS011;47427;51.976;5.326;2023-12-22T05:00:53;27.48;;;6.22;;
45402;SDS011;47427;51.976;5.326;2023-12-22T05:03:56;23.77;;;5.38;;
45402;SDS011;47427;51.976;5.326;2023-12-22T05:06:58;16.15;;;5.45;;
45402;SDS011;47427;51.976;5.326;2023-12-22T05:10:01;25.65;;;5.22;;
45402;SDS011;47427;51.976;5.326;2023-12-22T05:13:05;20.92;;;4.97;;
45402;SDS011;47427;51.976;5.326;2023-12-22T05:16:07;14.80;;;5.05;;
45402;SDS011;47427;51.976;5.326;2023-12-22T05:19:10;20.88;;;5.75;;
45402;SDS011;47427;51.976;5.326;2023-12-22T05:22:12;21.08;;;5.18;;
45402;SDS011;47427;51.976;5.326;2023-12-22T05:25:14;12.30;;;4.78;;
45402;SDS011;47427;51.976;5.326;2023-12-22T05:28:17;25.67;;;4.90;;
45402;SDS011;47427;51.976;5.326;2023-12-22T05:31:20;23.27;;;5.82;;
45402;SDS011;47427;51.976;5.326;2023-12-22T05:34:22;17.65;;;5.20;;
45402;SDS011;47427;51.976;5.326;2023-12-22T05:37:25;13.38;;;4.50;;
45402;SDS011;47427;51.976;5.326;2023-12-22T05:40:28;16.35;;;5.43;;
45402;SDS011;47427;51.976;5.326;2023-12-22T05:43:33;23.60;;;5.20;;
45402;SDS011;47427;51.976;5.326;2023-12-22T05:46:35;15.93;;;4.75;;
45402;SDS011;47427;51.976;5.326;2023-12-22T05:52:42;25.08;;;5.90;;
45402;SDS011;47427;51.976;5.326;2023-12-22T05:55:48;19.75;;;4.60;;
45402;SDS011;47427;51.976;5.326;2023-12-22T05:58:50;17.20;;;4.03;;
45402;SDS011;47427;51.976;5.326;2023-12-22T06:01:53;24.00;;;5.68;;
45402;SDS011;47427;51.976;5.326;2023-12-22T06:04:56;24.92;;;5.22;;
45402;SDS011;47427;51.976;5.326;2023-12-22T06:07:59;31.48;;;5.45;;
45402;SDS011;47427;51.976;5.326;2023-12-22T06:11:00;18.55;;;5.60;;
45402;SDS011;47427;51.976;5.326;2023-12-22T06:14:03;14.27;;;3.97;;
45402;SDS011;47427;51.976;5.326;2023-12-22T06:17:06;22.30;;;5.10;;
45402;SDS011;47427;51.976;5.326;2023-12-22T06:20:09;23.92;;;6.45;;
45402;SDS011;47427;51.976;5.326;2023-12-22T06:23:11;21.05;;;5.57;;
45402;SDS011;47427;51.976;5.326;2023-12-22T06:26:13;29.30;;;7.00;;
45402;SDS011;47427;51.976;5.326;2023-12-22T06:29:16;25.02;;;4.70;;
45402;SDS011;47427;51.976;5.326;2023-12-22T06:32:19;22.80;;;5.95;;
45402;SDS011;47427;51.976;5.326;2023-12-22T06:35:20;23.90;;;6.43;;
45402;SDS011;47427;51.976;5.326;2023-12-22T06:38:25;24.08;;;6.00;;
45402;SDS011;47427;51.976;5.326;2023-12-22T06:41:29;27.23;;;6.05;;
45402;SDS011;47427;51.976;5.326;2023-12-22T06:44:32;29.05;;;6.30;;
45402;SDS011;47427;51.976;5.326;2023-12-22T06:47:34;28.83;;;6.90;;
45402;SDS011;47427;51.976;5.326;2023-12-22T06:50:37;28.42;;;7.68;;
45402;SDS011;47427;51.976;5.326;2023-12-22T06:53:41;40.70;;;7.80;;
45402;SDS011;47427;51.976;5.326;2023-12-22T06:56:44;28.70;;;8.38;;
45402;SDS011;47427;51.976;5.326;2023-12-22T06:59:47;33.03;;;8.50;;
45402;SDS011;47427;51.976;5.326;2023-12-22T07:02:51;26.25;;;7.05;;
45402;SDS011;47427;51.976;5.326;2023-12-22T07:05:54;35.42;;;7.78;;
45402;SDS011;47427;51.976;5.326;2023-12-22T07:12:18;35.45;;;9.98;;
45402;SDS011;47427;51.976;5.326;2023-12-22T07:15:19;39.92;;;8.25;;
45402;SDS011;47427;51.976;5.326;2023-12-22T07:18:22;34.58;;;8.85;;
45402;SDS011;47427;51.976;5.326;2023-12-22T07:21:27;37.20;;;9.73;;
45402;SDS011;47427;51.976;5.326;2023-12-22T07:24:30;44.13;;;10.05;;
45402;SDS011;47427;51.976;5.326;2023-12-22T07:27:31;35.47;;;10.38;;
45402;SDS011;47427;51.976;5.326;2023-12-22T07:30:34;34.80;;;9.65;;
45402;SDS011;47427;51.976;5.326;2023-12-22T07:33:37;40.95;;;9.88;;
45402;SDS011;47427;51.976;5.326;2023-12-22T07:37:01;28.40;;;7.43;;
45402;SDS011;47427;51.976;5.326;2023-12-22T07:40:04;35.83;;;7.78;;
45402;SDS011;47427;51.976;5.326;2023-12-22T07:43:07;37.55;;;8.38;;
45402;SDS011;47427;51.976;5.326;2023-12-22T07:46:16;45.42;;;9.45;;
45402;SDS011;47427;51.976;5.326;2023-12-22T07:49:21;55.50;;;10.30;;
45402;SDS011;47427;51.976;5.326;2023-12-22T07:52:25;24.45;;;7.00;;
45402;SDS011;47427;51.976;5.326;2023-12-22T07:55:28;34.95;;;9.20;;
45402;SDS011;47427;51.976;5.326;2023-12-22T07:58:31;43.47;;;10.23;;
45402;SDS011;47427;51.976;5.326;2023-12-22T08:01:32;40.97;;;11.10;;
45402;SDS011;47427;51.976;5.326;2023-12-22T08:04:35;41.00;;;9.20;;
45402;SDS011;47427;51.976;5.326;2023-12-22T08:07:38;37.45;;;11.73;;
45402;SDS011;47427;51.976;5.326;2023-12-22T08:10:42;33.80;;;9.25;;
45402;SDS011;47427;51.976;5.326;2023-12-22T08:13:43;36.97;;;8.10;;
45402;SDS011;47427;51.976;5.326;2023-12-22T08:16:47;40.20;;;8.52;;
45402;SDS011;47427;51.976;5.326;2023-12-22T08:19:49;29.83;;;7.28;;
45402;SDS011;47427;51.976;5.326;2023-12-22T08:22:52;38.13;;;8.50;;
45402;SDS011;47427;51.976;5.326;2023-12-22T08:25:55;43.95;;;12.50;;
45402;SDS011;47427;51.976;5.326;2023-12-22T08:28:59;31.60;;;8.43;;
45402;SDS011;47427;51.976;5.326;2023-12-22T08:32:02;28.83;;;7.03;;
45402;SDS011;47427;51.976;5.326;2023-12-22T08:35:06;35.88;;;7.57;;
45402;SDS011;47427;51.976;5.326;2023-12-22T08:38:28;26.80;;;7.28;;
45402;SDS011;47427;51.976;5.326;2023-12-22T08:41:29;32.35;;;8.18;;
45402;SDS011;47427;51.976;5.326;2023-12-22T08:44:37;41.17;;;8.05;;
45402;SDS011;47427;51.976;5.326;2023-12-22T08:47:40;26.45;;;6.30;;
45402;SDS011;47427;51.976;5.326;2023-12-22T08:50:43;31.30;;;8.68;;
45402;SDS011;47427;51.976;5.326;2023-12-22T08:53:44;27.83;;;6.35;;
45402;SDS011;47427;51.976;5.326;2023-12-22T08:56:47;30.60;;;7.43;;
45402;SDS011;47427;51.976;5.326;2023-12-22T08:59:50;15.85;;;4.60;;
45402;SDS011;47427;51.976;5.326;2023-12-22T09:02:53;23.20;;;5.90;;
45402;SDS011;47427;51.976;5.326;2023-12-22T09:05:55;28.05;;;4.90;;
45402;SDS011;47427;51.976;5.326;2023-12-22T09:08:58;24.63;;;4.93;;
45402;SDS011;47427;51.976;5.326;2023-12-22T09:12:01;29.63;;;6.72;;
45402;SDS011;47427;51.976;5.326;2023-12-22T09:15:05;20.23;;;4.97;;
45402;SDS011;47427;51.976;5.326;2023-12-22T09:18:07;26.05;;;5.68;;
45402;SDS011;47427;51.976;5.326;2023-12-22T09:21:10;29.20;;;4.93;;
45402;SDS011;47427;51.976;5.326;2023-12-22T09:24:13;22.15;;;5.38;;
45402;SDS011;47427;51.976;5.326;2023-12-22T09:27:16;16.63;;;3.97;;
45402;SDS011;47427;51.976;5.326;2023-12-22T09:30:18;17.65;;;4.28;;
45402;SDS011;47427;51.976;5.326;2023-12-22T09:33:21;17.73;;;4.82;;
45402;SDS011;47427;51.976;5.326;2023-12-22T09:36:25;12.15;;;3.47;;
45402;SDS011;47427;51.976;5.326;2023-12-22T09:39:28;10.20;;;3.47;;
45402;SDS011;47427;51.976;5.326;2023-12-22T09:42:29;8.10;;;3.10;;
45402;SDS011;47427;51.976;5.326;2023-12-22T09:45:32;17.33;;;4.45;;
45402;SDS011;47427;51.976;5.326;2023-12-22T09:48:36;12.23;;;4.28;;
45402;SDS011;47427;51.976;5.326;2023-12-22T09:51:41;15.30;;;3.17;;
45402;SDS011;47427;51.976;5.326;2023-12-22T09:54:45;13.52;;;3.97;;
45402;SDS011;47427;51.976;5.326;2023-12-22T09:57:49;14.88;;;4.35;;
45402;SDS011;47427;51.976;5.326;2023-12-22T10:00:53;12.15;;;3.22;;
45402;SDS011;47427;51.976;5.326;2023-12-22T10:03:58;9.35;;;2.47;;
45402;SDS011;47427;51.976;5.326;2023-12-22T10:07:02;10.77;;;2.75;;
45402;SDS011;47427;51.976;5.326;2023-12-22T10:10:06;15.83;;;3.70;;
45402;SDS011;47427;51.976;5.326;2023-12-22T10:13:10;7.07;;;2.33;;
45402;SDS011;47427;51.976;5.326;2023-12-22T10:16:14;9.40;;;3.15;;
45402;SDS011;47427;51.976;5.326;2023-12-22T10:19:17;11.38;;;3.75;;
45402;SDS011;47427;51.976;5.326;2023-12-22T10:22:20;9.73;;;2.67;;
45402;SDS011;47427;51.976;5.326;2023-12-22T10:25:29;10.98;;;2.80;;
45402;SDS011;47427;51.976;5.326;2023-12-22T10:28:32;9.82;;;2.65;;
45402;SDS011;47427;51.976;5.326;2023-12-22T10:31:39;7.47;;;2.92;;
45402;SDS011;47427;51.976;5.326;2023-12-22T10:34:41;11.20;;;3.33;;
45402;SDS011;47427;51.976;5.326;2023-12-22T10:37:45;7.53;;;2.38;;
45402;SDS011;47427;51.976;5.326;2023-12-22T10:40:49;8.95;;;3.10;;
45402;SDS011;47427;51.976;5.326;2023-12-22T10:43:52;10.68;;;2.67;;
45402;SDS011;47427;51.976;5.326;2023-12-22T10:46:55;5.18;;;2.70;;
45402;SDS011;47427;51.976;5.326;2023-12-22T10:50:02;8.85;;;3.20;;
45402;SDS011;47427;51.976;5.326;2023-12-22T10:53:10;8.98;;;3.17;;
45402;SDS011;47427;51.976;5.326;2023-12-22T10:56:12;12.10;;;3.63;;
45402;SDS011;47427;51.976;5.326;2023-12-22T10:59:18;11.27;;;3.30;;
45402;SDS011;47427;51.976;5.326;2023-12-22T11:02:26;6.60;;;3.22;;
45402;SDS011;47427;51.976;5.326;2023-12-22T11:05:33;9.30;;;3.40;;
45402;SDS011;47427;51.976;5.326;2023-12-22T11:08:37;10.90;;;3.47;;
45402;SDS011;47427;51.976;5.326;2023-12-22T11:11:42;16.57;;;4.57;;
45402;SDS011;47427;51.976;5.326;2023-12-22T11:14:45;8.23;;;3.22;;
45402;SDS011;47427;51.976;5.326;2023-12-22T11:17:52;11.95;;;5.00;;
45402;SDS011;47427;51.976;5.326;2023-12-22T11:20:58;8.43;;;3.30;;
45402;SDS011;47427;51.976;5.326;2023-12-22T11:24:03;8.85;;;3.50;;
45402;SDS011;47427;51.976;5.326;2023-12-22T11:27:07;8.88;;;2.97;;
45402;SDS011;47427;51.976;5.326;2023-12-22T11:30:11;11.38;;;3.53;;
45402;SDS011;47427;51.976;5.326;2023-12-22T11:33:14;10.85;;;3.83;;
45402;SDS011;47427;51.976;5.326;2023-12-22T11:36:18;7.50;;;3.50;;
45402;SDS011;47427;51.976;5.326;2023-12-22T11:39:21;9.52;;;3.25;;
45402;SDS011;47427;51.976;5.326;2023-12-22T11:42:25;11.23;;;3.53;;
45402;SDS011;47427;51.976;5.326;2023-12-22T11:45:37;14.95;;;4.32;;
45402;SDS011;47427;51.976;5.326;2023-12-22T11:48:46;9.68;;;2.67;;
45402;SDS011;47427;51.976;5.326;2023-12-22T11:51:50;10.23;;;3.38;;
45402;SDS011;47427;51.976;5.326;2023-12-22T11:55:12;12.65;;;3.13;;
45402;SDS011;47427;51.976;5.326;2023-12-22T12:01:37;10.60;;;3.58;;
45402;SDS011;47427;51.976;5.326;2023-12-22T12:04:41;14.70;;;3.22;;
45402;SDS011;47427;51.976;5.326;2023-12-22T12:07:45;11.90;;;2.80;;
45402;SDS011;47427;51.976;5.326;2023-12-22T12:10:51;7.93;;;2.70;;
45402;SDS011;47427;51.976;5.326;2023-12-22T12:13:57;11.05;;;3.30;;
45402;SDS011;47427;51.976;5.326;2023-12-22T12:17:14;9.15;;;4.22;;
45402;SDS011;47427;51.976;5.326;2023-12-22T12:20:20;9.32;;;3.35;;
45402;SDS011;47427;51.976;5.326;2023-12-22T12:23:26;6.45;;;3.70;;
45402;SDS011;47427;51.976;5.326;2023-12-22T12:26:30;10.63;;;3.80;;
45402;SDS011;47427;51.976;5.326;2023-12-22T12:29:35;9.68;;;3.28;;
45402;SDS011;47427;51.976;5.326;2023-12-22T12:32:42;6.05;;;3.42;;
45402;SDS011;47427;51.976;5.326;2023-12-22T12:35:47;12.77;;;3.72;;
45402;SDS011;47427;51.976;5.326;2023-12-22T12:38:54;12.65;;;4.00;;
45402;SDS011;47427;51.976;5.326;2023-12-22T12:42:03;12.77;;;3.05;;
45402;SDS011;47427;51.976;5.326;2023-12-22T12:45:10;7.30;;;3.15;;
45402;SDS011;47427;51.976;5.326;2023-12-22T12:48:13;12.50;;;3.30;;
45402;SDS011;47427;51.976;5.326;2023-12-22T12:51:19;8.00;;;3.22;;
45402;SDS011;47427;51.976;5.326;2023-12-22T12:54:23;15.73;;;3.22;;
45402;SDS011;47427;51.976;5.326;2023-12-22T12:57:26;9.32;;;2.78;;
45402;SDS011;47427;51.976;5.326;2023-12-22T13:00:28;9.77;;;3.55;;
45402;SDS011;47427;51.976;5.326;2023-12-22T13:03:33;10.98;;;3.25;;
45402;SDS011;47427;51.976;5.326;2023-12-22T13:06:57;7.70;;;2.55;;
45402;SDS011;47427;51.976;5.326;2023-12-22T13:09:59;6.93;;;3.13;;
45402;SDS011;47427;51.976;5.326;2023-12-22T13:13:02;10.73;;;3.67;;
45402;SDS011;47427;51.976;5.326;2023-12-22T13:16:06;14.25;;;3.60;;
45402;SDS011;47427;51.976;5.326;2023-12-22T13:19:09;12.07;;;3.28;;
45402;SDS011;47427;51.976;5.326;2023-12-22T13:22:10;9.13;;;3.10;;
45402;SDS011;47427;51.976;5.326;2023-12-22T13:25:13;11.45;;;3.47;;
45402;SDS011;47427;51.976;5.326;2023-12-22T13:28:24;13.00;;;4.32;;
45402;SDS011;47427;51.976;5.326;2023-12-22T13:31:31;14.48;;;3.45;;
45402;SDS011;47427;51.976;5.326;2023-12-22T13:34:33;14.43;;;3.25;;
45402;SDS011;47427;51.976;5.326;2023-12-22T13:37:40;14.73;;;4.30;;
45402;SDS011;47427;51.976;5.326;2023-12-22T13:40:44;27.85;;;5.13;;
45402;SDS011;47427;51.976;5.326;2023-12-22T13:43:48;11.37;;;3.43;;
45402;SDS011;47427;51.976;5.326;2023-12-22T13:46:50;9.45;;;3.45;;
45402;SDS011;47427;51.976;5.326;2023-12-22T13:49:52;9.80;;;3.20;;
45402;SDS011;47427;51.976;5.326;2023-12-22T13:53:14;11.65;;;3.42;;
45402;SDS011;47427;51.976;5.326;2023-12-22T13:56:16;12.48;;;3.30;;
45402;SDS011;47427;51.976;5.326;2023-12-22T13:59:29;20.50;;;3.80;;
45402;SDS011;47427;51.976;5.326;2023-12-22T14:02:35;17.70;;;4.05;;
45402;SDS011;47427;51.976;5.326;2023-12-22T14:05:37;9.18;;;3.20;;
45402;SDS011;47427;51.976;5.326;2023-12-22T14:08:41;10.43;;;3.25;;
45402;SDS011;47427;51.976;5.326;2023-12-22T14:11:42;14.75;;;3.70;;
45402;SDS011;47427;51.976;5.326;2023-12-22T14:14:45;12.43;;;3.40;;
45402;SDS011;47427;51.976;5.326;2023-12-22T14:17:48;16.48;;;3.42;;
45402;SDS011;47427;51.976;5.326;2023-12-22T14:20:51;16.70;;;3.30;;
45402;SDS011;47427;51.976;5.326;2023-12-22T14:23:54;11.40;;;3.42;;
45402;SDS011;47427;51.976;5.326;2023-12-22T14:26:56;8.32;;;3.50;;
45402;SDS011;47427;51.976;5.326;2023-12-22T14:29:59;12.93;;;4.30;;
45402;SDS011;47427;51.976;5.326;2023-12-22T14:33:02;16.45;;;4.13;;
45402;SDS011;47427;51.976;5.326;2023-12-22T14:36:05;23.25;;;6.38;;
45402;SDS011;47427;51.976;5.326;2023-12-22T14:39:08;22.75;;;5.28;;
45402;SDS011;47427;51.976;5.326;2023-12-22T14:45:16;16.83;;;3.92;;
45402;SDS011;47427;51.976;5.326;2023-12-22T14:48:19;11.43;;;3.72;;
45402;SDS011;47427;51.976;5.326;2023-12-22T14:51:22;14.85;;;4.40;;
45402;SDS011;47427;51.976;5.326;2023-12-22T14:54:25;14.85;;;4.07;;
45402;SDS011;47427;51.976;5.326;2023-12-22T14:57:28;19.73;;;6.22;;
45402;SDS011;47427;51.976;5.326;2023-12-22T15:00:31;24.92;;;5.13;;
45402;SDS011;47427;51.976;5.326;2023-12-22T15:03:32;13.70;;;4.90;;
45402;SDS011;47427;51.976;5.326;2023-12-22T15:06:38;19.13;;;3.97;;
45402;SDS011;47427;51.976;5.326;2023-12-22T15:09:42;23.13;;;4.68;;
45402;SDS011;47427;51.976;5.326;2023-12-22T15:12:46;13.93;;;4.50;;
45402;SDS011;47427;51.976;5.326;2023-12-22T15:15:49;17.13;;;3.85;;
45402;SDS011;47427;51.976;5.326;2023-12-22T15:18:52;16.33;;;4.05;;
45402;SDS011;47427;51.976;5.326;2023-12-22T15:21:55;16.30;;;3.55;;
45402;SDS011;47427;51.976;5.326;2023-12-22T15:24:58;20.60;;;3.92;;
45402;SDS011;47427;51.976;5.326;2023-12-22T15:28:00;18.85;;;4.50;;
45402;SDS011;47427;51.976;5.326;2023-12-22T15:31:07;21.30;;;4.95;;
45402;SDS011;47427;51.976;5.326;2023-12-22T15:34:10;25.58;;;5.60;;
45402;SDS011;47427;51.976;5.326;2023-12-22T15:37:13;21.55;;;4.68;;
45402;SDS011;47427;51.976;5.326;2023-12-22T15:40:15;17.42;;;5.05;;
45402;SDS011;47427;51.976;5.326;2023-12-22T15:43:18;23.95;;;5.65;;
45402;SDS011;47427;51.976;5.326;2023-12-22T15:46:21;19.83;;;5.00;;
45402;SDS011;47427;51.976;5.326;2023-12-22T15:49:43;15.27;;;4.45;;
45402;SDS011;47427;51.976;5.326;2023-12-22T15:52:46;22.23;;;5.25;;
45402;SDS011;47427;51.976;5.326;2023-12-22T15:55:49;19.98;;;4.97;;
45402;SDS011;47427;51.976;5.326;2023-12-22T15:58:52;23.10;;;5.78;;
45402;SDS011;47427;51.976;5.326;2023-12-22T16:02:13;14.32;;;4.25;;
45402;SDS011;47427;51.976;5.326;2023-12-22T16:05:18;17.90;;;4.17;;
45402;SDS011;47427;51.976;5.326;2023-12-22T16:08:23;15.60;;;5.20;;
45402;SDS011;47427;51.976;5.326;2023-12-22T16:11:27;24.03;;;4.93;;
45402;SDS011;47427;51.976;5.326;2023-12-22T16:14:33;19.98;;;4.43;;
45402;SDS011;47427;51.976;5.326;2023-12-22T16:17:35;24.52;;;4.32;;
45402;SDS011;47427;51.976;5.326;2023-12-22T16:20:38;18.35;;;4.88;;
45402;SDS011;47427;51.976;5.326;2023-12-22T16:23:41;19.15;;;5.25;;
45402;SDS011;47427;51.976;5.326;2023-12-22T16:26:44;20.50;;;4.15;;
45402;SDS011;47427;51.976;5.326;2023-12-22T16:29:46;15.88;;;3.65;;
45402;SDS011;47427;51.976;5.326;2023-12-22T16:32:49;17.15;;;4.25;;
45402;SDS011;47427;51.976;5.326;2023-12-22T16:35:52;14.70;;;4.55;;
45402;SDS011;47427;51.976;5.326;2023-12-22T16:38:55;16.50;;;4.15;;
45402;SDS011;47427;51.976;5.326;2023-12-22T16:41:57;12.70;;;5.05;;
45402;SDS011;47427;51.976;5.326;2023-12-22T16:45:00;14.82;;;3.85;;
45402;SDS011;47427;51.976;5.326;2023-12-22T16:48:03;19.48;;;4.53;;
45402;SDS011;47427;51.976;5.326;2023-12-22T16:51:06;13.27;;;3.55;;
45402;SDS011;47427;51.976;5.326;2023-12-22T16:54:08;24.15;;;4.93;;
45402;SDS011;47427;51.976;5.326;2023-12-22T16:57:29;17.20;;;4.25;;
45402;SDS011;47427;51.976;5.326;2023-12-22T17:00:30;20.77;;;4.65;;
45402;SDS011;47427;51.976;5.326;2023-12-22T17:03:33;23.42;;;4.50;;
45402;SDS011;47427;51.976;5.326;2023-12-22T17:06:50;19.85;;;4.50;;
45402;SDS011;47427;51.976;5.326;2023-12-22T17:09:55;16.63;;;3.72;;
45402;SDS011;47427;51.976;5.326;2023-12-22T17:12:58;20.38;;;5.07;;
45402;SDS011;47427;51.976;5.326;2023-12-22T17:15:59;18.25;;;4.35;;
45402;SDS011;47427;51.976;5.326;2023-12-22T17:19:02;15.07;;;4.10;;
45402;SDS011;47427;51.976;5.326;2023-12-22T17:22:05;18.38;;;4.38;;
45402;SDS011;47427;51.976;5.326;2023-12-22T17:25:09;19.83;;;4.05;;
45402;SDS011;47427;51.976;5.326;2023-12-22T17:28:13;16.85;;;4.00;;
45402;SDS011;47427;51.976;5.326;2023-12-22T17:31:16;18.00;;;4.32;;
45402;SDS011;47427;51.976;5.326;2023-12-22T17:34:19;14.80;;;3.90;;
45402;SDS011;47427;51.976;5.326;2023-12-22T17:37:21;14.20;;;3.53;;
45402;SDS011;47427;51.976;5.326;2023-12-22T17:40:24;10.40;;;3.50;;
45402;SDS011;47427;51.976;5.326;2023-12-22T17:43:27;22.20;;;4.72;;
45402;SDS011;47427;51.976;5.326;2023-12-22T17:46:30;15.93;;;3.97;;
45402;SDS011;47427;51.976;5.326;2023-12-22T17:49:33;18.58;;;5.32;;
45402;SDS011;47427;51.976;5.326;2023-12-22T17:52:36;12.02;;;3.45;;
45402;SDS011;47427;51.976;5.326;2023-12-22T17:55:38;14.93;;;4.40;;
45402;SDS011;47427;51.976;5.326;2023-12-22T17:58:40;29.83;;;6.32;;
45402;SDS011;47427;51.976;5.326;2023-12-22T18:01:43;16.60;;;4.53;;
45402;SDS011;47427;51.976;5.326;2023-12-22T18:04:46;22.23;;;4.47;;
45402;SDS011;47427;51.976;5.326;2023-12-22T18:07:48;19.88;;;5.97;;
45402;SDS011;47427;51.976;5.326;2023-12-22T18:10:51;25.02;;;5.68;;
45402;SDS011;47427;51.976;5.326;2023-12-22T18:13:53;21.27;;;5.47;;
45402;SDS011;47427;51.976;5.326;2023-12-22T18:16:57;18.25;;;5.25;;
45402;SDS011;47427;51.976;5.326;2023-12-22T18:19:58;25.55;;;3.78;;
45402;SDS011;47427;51.976;5.326;2023-12-22T18:23:01;22.15;;;4.50;;
45402;SDS011;47427;51.976;5.326;2023-12-22T18:26:04;25.10;;;5.10;;